Time;durP1;ratioP1;P1;durP2;ratioP2;P2;SDS_P1;SDS_P2;PMS_P1;PMS_P2;Temp;Humidity;BMP_temperature;BMP_pressure;BME280_temperature;BME280_humidity;BME280_pressure;Samples;Min_cycle;Max_cycle;Signal;HPM_P1;HPM_P2
2022/09/30 00:02:23;;;;;;;1999.90;999.90;;;;;;;;;;5066798;28;20232;-72
2022/09/30 00:04:51;;;;;;;1999.90;999.90;;;;;;;;;;5041580;28;20231;-72
2022/09/30 00:07:22;;;;;;;1999.90;999.90;;;;;;;;;;5035321;28;21088;-76
2022/09/30 00:09:50;;;;;;;1999.90;999.90;;;;;;;;;;5034408;28;20244;-72
2022/09/30 00:12:18;;;;;;;1999.90;999.90;;;;;;;;;;5053919;28;20219;-72
2022/09/30 00:14:46;;;;;;;1999.90;999.90;;;;;;;;;;5055929;28;20231;-71
2022/09/30 00:17:15;;;;;;;1999.90;999.90;;;;;;;;;;5052920;28;21013;-71
2022/09/30 00:19:43;;;;;;;1999.90;999.90;;;;;;;;;;5070012;28;20390;-71
2022/09/30 00:22:10;;;;;;;1999.90;999.90;;;;;;;;;;5070100;28;20238;-71
2022/09/30 00:24:40;;;;;;;1999.90;999.90;;;;;;;;;;5053508;28;20227;-72
2022/09/30 00:27:08;;;;;;;1999.90;999.90;;;;;;;;;;5031675;28;20239;-72
2022/09/30 00:29:36;;;;;;;1999.90;999.90;;;;;;;;;;5048608;28;20880;-72
2022/09/30 00:32:04;;;;;;;1999.90;999.90;;;;;;;;;;5037717;28;20705;-72
2022/09/30 00:34:31;;;;;;;1999.90;999.90;;;;;;;;;;5042368;28;20310;-73
2022/09/30 00:37:01;;;;;;;1999.90;999.90;;;;;;;;;;5028885;28;20227;-73
2022/09/30 00:39:30;;;;;;;1999.90;999.90;;;;;;;;;;5056124;28;20230;-72
2022/09/30 00:42:00;;;;;;;1999.90;999.90;;;;;;;;;;5039096;28;20297;-73
2022/09/30 00:44:45;;;;;;;1999.90;999.90;;;;;;;;;;5067226;28;20239;-72
2022/09/30 00:47:22;;;;;;;1999.90;999.90;;;;;;;;;;5046652;28;20338;-72
2022/09/30 00:49:50;;;;;;;1999.90;999.90;;;;;;;;;;5045089;28;20927;-72
2022/09/30 00:52:18;;;;;;;1999.90;999.90;;;;;;;;;;5064985;28;20446;-72
2022/09/30 00:54:46;;;;;;;1999.90;999.90;;;;;;;;;;5046140;28;20419;-73
2022/09/30 00:57:15;;;;;;;1999.90;999.90;;;;;;;;;;5067431;28;22253;-72
2022/09/30 00:59:44;;;;;;;1999.90;999.90;;;;;;;;;;5062641;28;20395;-73
2022/09/30 01:02:13;;;;;;;1999.90;999.90;;;;;;;;;;5049594;28;20441;-73
2022/09/30 01:04:41;;;;;;;1999.90;999.90;;;;;;;;;;5069343;28;20427;-73
2022/09/30 01:07:09;;;;;;;1999.90;999.90;;;;;;;;;;5066895;28;20948;-73
2022/09/30 01:09:39;;;;;;;1999.90;999.90;;;;;;;;;;5045273;28;20414;-73
2022/09/30 01:12:07;;;;;;;1999.90;999.90;;;;;;;;;;5064565;28;20453;-74
2022/09/30 01:14:37;;;;;;;1999.90;999.90;;;;;;;;;;5048586;28;20497;-73
2022/09/30 01:17:09;;;;;;;1999.90;999.90;;;;;;;;;;5044815;28;20521;-73
2022/09/30 01:19:52;;;;;;;1999.90;999.90;;;;;;;;;;5069023;28;20434;-72
2022/09/30 01:22:29;;;;;;;1999.90;999.90;;;;;;;;;;5062530;28;20430;-73
2022/09/30 01:25:10;;;;;;;1999.90;999.90;;;;;;;;;;5064457;28;20421;-73
2022/09/30 01:27:46;;;;;;;1999.90;999.90;;;;;;;;;;5057181;28;22082;-73
2022/09/30 01:30:17;;;;;;;1999.90;999.90;;;;;;;;;;5058202;28;20398;-72
2022/09/30 01:32:58;;;;;;;1999.90;999.90;;;;;;;;;;5047168;28;20404;-73
2022/09/30 01:35:30;;;;;;;1999.90;999.90;;;;;;;;;;5059701;28;20414;-72
2022/09/30 01:38:01;;;;;;;1999.90;999.90;;;;;;;;;;5043361;28;20449;-72
2022/09/30 01:40:33;;;;;;;1999.90;999.90;;;;;;;;;;5058251;28;20440;-73
2022/09/30 01:43:05;;;;;;;1999.90;999.90;;;;;;;;;;5062096;28;20531;-73
2022/09/30 01:45:34;;;;;;;1999.90;999.90;;;;;;;;;;5046095;28;20401;-72
2022/09/30 01:48:05;;;;;;;1999.90;999.90;;;;;;;;;;5026747;28;20903;-73
2022/09/30 01:50:38;;;;;;;1999.90;999.90;;;;;;;;;;5044293;28;20397;-73
2022/09/30 01:53:10;;;;;;;1999.90;999.90;;;;;;;;;;5058058;28;20513;-73
2022/09/30 01:55:40;;;;;;;1999.90;999.90;;;;;;;;;;5058354;28;20460;-73
2022/09/30 01:58:11;;;;;;;1999.90;999.90;;;;;;;;;;5063559;28;20438;-72
2022/09/30 02:00:41;;;;;;;1999.90;999.90;;;;;;;;;;5066550;28;20426;-72
2022/09/30 02:03:12;;;;;;;1999.90;999.90;;;;;;;;;;5041040;28;20398;-72
2022/09/30 02:05:42;;;;;;;1999.90;999.90;;;;;;;;;;5062884;28;20524;-73
2022/09/30 02:08:16;;;;;;;1999.90;999.90;;;;;;;;;;5063860;28;20522;-73
2022/09/30 02:10:45;;;;;;;1999.90;999.90;;;;;;;;;;5042618;28;21167;-73
2022/09/30 02:13:17;;;;;;;1999.90;999.90;;;;;;;;;;5047264;28;20493;-72
2022/09/30 02:15:47;;;;;;;1999.90;999.90;;;;;;;;;;5044116;28;20588;-72
2022/09/30 02:18:20;;;;;;;1999.90;999.90;;;;;;;;;;5045666;28;20396;-72
2022/09/30 02:20:49;;;;;;;1999.90;999.90;;;;;;;;;;5060503;28;20403;-73
2022/09/30 02:23:20;;;;;;;1999.90;999.90;;;;;;;;;;5067513;28;20401;-72
2022/09/30 02:25:50;;;;;;;1999.90;999.90;;;;;;;;;;5064579;28;20413;-72
2022/09/30 02:28:19;;;;;;;1999.90;999.90;;;;;;;;;;5038182;28;20468;-73
2022/09/30 02:30:49;;;;;;;1999.90;999.90;;;;;;;;;;5043590;28;20522;-73
2022/09/30 02:33:20;;;;;;;1999.90;999.90;;;;;;;;;;5041069;28;20387;-73
2022/09/30 02:35:49;;;;;;;1999.90;999.90;;;;;;;;;;5054684;28;21306;-72
2022/09/30 02:38:18;;;;;;;1999.90;999.90;;;;;;;;;;5027080;28;20378;-72
2022/09/30 02:40:48;;;;;;;1999.90;999.90;;;;;;;;;;5066403;28;20501;-72
2022/09/30 02:43:17;;;;;;;1999.90;999.90;;;;;;;;;;5061504;28;20391;-72
2022/09/30 02:45:47;;;;;;;1999.90;999.90;;;;;;;;;;5044201;28;20469;-72
2022/09/30 02:48:23;;;;;;;1999.90;999.90;;;;;;;;;;5066250;28;20404;-72
2022/09/30 02:50:52;;;;;;;1999.90;999.90;;;;;;;;;;5067441;28;20414;-73
2022/09/30 02:53:25;;;;;;;1999.90;999.90;;;;;;;;;;5064532;28;21021;-73
2022/09/30 02:56:08;;;;;;;1999.90;999.90;;;;;;;;;;5052314;28;20413;-73
2022/09/30 02:58:39;;;;;;;1999.90;999.90;;;;;;;;;;5075817;28;20681;-72
2022/09/30 03:01:07;;;;;;;1999.90;999.90;;;;;;;;;;5064426;28;21653;-72
2022/09/30 03:03:37;;;;;;;1999.90;999.90;;;;;;;;;;5073934;28;20490;-72
2022/09/30 03:06:05;;;;;;;1999.90;999.90;;;;;;;;;;5055948;28;21386;-73
2022/09/30 03:08:33;;;;;;;1999.90;999.90;;;;;;;;;;5032755;28;20375;-72
2022/09/30 03:11:02;;;;;;;1999.90;999.90;;;;;;;;;;5046359;28;20878;-72
2022/09/30 03:13:52;;;;;;;1999.90;999.90;;;;;;;;;;5059634;28;21211;-72
2022/09/30 03:16:22;;;;;;;1999.90;999.90;;;;;;;;;;5041760;28;20935;-73
2022/09/30 03:18:57;;;;;;;1999.90;999.90;;;;;;;;;;5066008;28;20395;-72
2022/09/30 03:21:34;;;;;;;1999.90;999.90;;;;;;;;;;5048026;28;20426;-73
2022/09/30 03:24:22;;;;;;;1999.90;999.90;;;;;;;;;;5064486;28;20576;-72
2022/09/30 03:26:54;;;;;;;1999.90;999.90;;;;;;;;;;5066726;28;20415;-72
2022/09/30 03:29:26;;;;;;;1999.90;999.90;;;;;;;;;;5063998;28;20387;-73
2022/09/30 03:31:57;;;;;;;1999.90;999.90;;;;;;;;;;5048019;28;21101;-72
2022/09/30 03:34:32;;;;;;;1999.90;999.90;;;;;;;;;;5066863;28;20401;-72
2022/09/30 03:37:02;;;;;;;1999.90;999.90;;;;;;;;;;5048956;28;20504;-72
2022/09/30 03:39:39;;;;;;;1999.90;999.90;;;;;;;;;;5035379;28;20484;-72
2022/09/30 03:42:10;;;;;;;1999.90;999.90;;;;;;;;;;5056468;28;20395;-72
2022/09/30 03:44:41;;;;;;;1999.90;999.90;;;;;;;;;;5047144;28;20401;-72
2022/09/30 03:47:10;;;;;;;1999.90;999.90;;;;;;;;;;5045605;28;20558;-72
2022/09/30 03:49:43;;;;;;;1999.90;999.90;;;;;;;;;;5031630;28;20429;-72
2022/09/30 03:52:12;;;;;;;1999.90;999.90;;;;;;;;;;5044809;28;20401;-72
2022/09/30 03:54:45;;;;;;;1999.90;999.90;;;;;;;;;;5048044;28;20421;-72
2022/09/30 03:57:13;;;;;;;1999.90;999.90;;;;;;;;;;5061299;28;20918;-71
2022/09/30 03:59:41;;;;;;;1999.90;999.90;;;;;;;;;;5062532;28;20434;-72
2022/09/30 04:02:12;;;;;;;1999.90;999.90;;;;;;;;;;5061487;28;20232;-72
2022/09/30 04:04:41;;;;;;;1999.90;999.90;;;;;;;;;;5065049;28;20729;-72
2022/09/30 04:07:09;;;;;;;1999.90;999.90;;;;;;;;;;5064934;28;20279;-73
2022/09/30 04:09:37;;;;;;;1999.90;999.90;;;;;;;;;;5050965;28;20287;-75
2022/09/30 04:12:05;;;;;;;1999.90;999.90;;;;;;;;;;5048670;28;20421;-71
2022/09/30 04:14:33;;;;;;;1999.90;999.90;;;;;;;;;;5066951;28;20232;-72
2022/09/30 04:17:01;;;;;;;1999.90;999.90;;;;;;;;;;5047669;28;20706;-72
2022/09/30 04:19:29;;;;;;;1999.90;999.90;;;;;;;;;;5064645;28;20280;-71
2022/09/30 04:21:58;;;;;;;1999.90;999.90;;;;;;;;;;5050680;28;21004;-73
2022/09/30 04:24:25;;;;;;;1999.90;999.90;;;;;;;;;;5069122;28;20246;-71
2022/09/30 04:26:53;;;;;;;1999.90;999.90;;;;;;;;;;5073147;28;20418;-73
2022/09/30 04:29:21;;;;;;;1999.90;999.90;;;;;;;;;;5060476;28;20231;-72
2022/09/30 04:31:49;;;;;;;1999.90;999.90;;;;;;;;;;5047485;28;20225;-72
2022/09/30 04:34:17;;;;;;;1999.90;999.90;;;;;;;;;;5043278;28;20995;-72
2022/09/30 04:36:44;;;;;;;1999.90;999.90;;;;;;;;;;5067255;28;20295;-72
2022/09/30 04:39:14;;;;;;;1999.90;999.90;;;;;;;;;;5028981;28;20905;-72
2022/09/30 04:41:42;;;;;;;1999.90;999.90;;;;;;;;;;5028859;28;20413;-72
2022/09/30 04:44:09;;;;;;;1999.90;999.90;;;;;;;;;;5048049;28;20406;-72
2022/09/30 04:46:37;;;;;;;1999.90;999.90;;;;;;;;;;5059858;28;20411;-72
2022/09/30 04:49:05;;;;;;;1999.90;999.90;;;;;;;;;;5040076;28;20434;-73
2022/09/30 04:51:37;;;;;;;1999.90;999.90;;;;;;;;;;5063434;28;20411;-72
2022/09/30 04:54:05;;;;;;;1999.90;999.90;;;;;;;;;;5059288;28;20430;-72
2022/09/30 04:56:34;;;;;;;1999.90;999.90;;;;;;;;;;5053443;28;20716;-72
2022/09/30 04:59:01;;;;;;;1999.90;999.90;;;;;;;;;;5035054;28;21033;-73
2022/09/30 05:01:29;;;;;;;1999.90;999.90;;;;;;;;;;5038017;28;21062;-73
2022/09/30 05:03:57;;;;;;;1999.90;999.90;;;;;;;;;;5040271;28;20488;-73
2022/09/30 05:06:25;;;;;;;1999.90;999.90;;;;;;;;;;5056888;28;20837;-73
2022/09/30 05:08:53;;;;;;;1999.90;999.90;;;;;;;;;;5059716;28;20415;-73
2022/09/30 05:11:21;;;;;;;1999.90;999.90;;;;;;;;;;5045579;28;20398;-73
2022/09/30 05:13:50;;;;;;;1999.90;999.90;;;;;;;;;;5061202;28;20445;-73
2022/09/30 05:16:18;;;;;;;1999.90;999.90;;;;;;;;;;5044638;28;20510;-73
2022/09/30 05:18:46;;;;;;;1999.90;999.90;;;;;;;;;;5061956;28;20406;-73
2022/09/30 05:21:15;;;;;;;1999.90;999.90;;;;;;;;;;5046368;28;20406;-73
2022/09/30 05:23:42;;;;;;;1999.90;999.90;;;;;;;;;;5050445;28;20406;-73
2022/09/30 05:26:10;;;;;;;1999.90;999.90;;;;;;;;;;5046335;28;20381;-73
2022/09/30 05:28:39;;;;;;;1999.90;999.90;;;;;;;;;;5046968;28;20518;-73
2022/09/30 05:31:08;;;;;;;1999.90;999.90;;;;;;;;;;5062458;28;20438;-73
2022/09/30 05:33:36;;;;;;;1999.90;999.90;;;;;;;;;;5043123;28;20414;-72
2022/09/30 05:36:05;;;;;;;1999.90;999.90;;;;;;;;;;5062233;28;20413;-72
2022/09/30 05:38:33;;;;;;;1999.90;999.90;;;;;;;;;;5063179;28;20485;-73
2022/09/30 05:41:06;;;;;;;1999.90;999.90;;;;;;;;;;5042418;28;20414;-73
2022/09/30 05:43:34;;;;;;;1999.90;999.90;;;;;;;;;;5061040;28;20512;-73
2022/09/30 05:46:02;;;;;;;1999.90;999.90;;;;;;;;;;5042991;28;20460;-73
2022/09/30 05:48:31;;;;;;;1999.90;999.90;;;;;;;;;;5067264;28;20485;-73
2022/09/30 05:51:00;;;;;;;1999.90;999.90;;;;;;;;;;5043779;28;20425;-72
2022/09/30 05:53:28;;;;;;;1999.90;999.90;;;;;;;;;;5039006;28;20394;-74
2022/09/30 05:55:56;;;;;;;1999.90;999.90;;;;;;;;;;5040422;28;20487;-73
2022/09/30 05:58:24;;;;;;;1999.90;999.90;;;;;;;;;;5044931;28;20877;-73
2022/09/30 06:00:52;;;;;;;1999.90;999.90;;;;;;;;;;5063125;28;20412;-71
2022/09/30 06:03:19;;;;;;;1999.90;999.90;;;;;;;;;;5039246;28;20391;-71
2022/09/30 06:05:49;;;;;;;1999.90;999.90;;;;;;;;;;5044394;28;20500;-72
2022/09/30 06:08:16;;;;;;;1999.90;999.90;;;;;;;;;;5053522;28;20518;-72
2022/09/30 06:10:45;;;;;;;1999.90;999.90;;;;;;;;;;5048770;28;20757;-72
2022/09/30 06:13:13;;;;;;;1999.90;999.90;;;;;;;;;;5062461;28;20408;-70
2022/09/30 06:15:40;;;;;;;1999.90;999.90;;;;;;;;;;5065015;28;20235;-72
2022/09/30 06:18:08;;;;;;;1999.90;999.90;;;;;;;;;;5030922;28;20440;-71
2022/09/30 06:20:36;;;;;;;1999.90;999.90;;;;;;;;;;5045998;28;20493;-72
2022/09/30 06:23:05;;;;;;;1999.90;999.90;;;;;;;;;;5060722;28;20437;-72
2022/09/30 06:25:33;;;;;;;1999.90;999.90;;;;;;;;;;5049877;28;21255;-72
2022/09/30 06:28:01;;;;;;;1999.90;999.90;;;;;;;;;;5061362;28;20449;-72
2022/09/30 06:30:29;;;;;;;1999.90;999.90;;;;;;;;;;5046098;28;20454;-71
2022/09/30 06:33:02;;;;;;;1999.90;999.90;;;;;;;;;;5050750;28;20429;-74
2022/09/30 06:35:29;;;;;;;1999.90;999.90;;;;;;;;;;5047763;28;21362;-71
2022/09/30 06:37:57;;;;;;;1999.90;999.90;;;;;;;;;;5049007;28;20395;-72
2022/09/30 06:40:26;;;;;;;1999.90;999.90;;;;;;;;;;5067584;28;20405;-72
2022/09/30 06:42:57;;;;;;;1999.90;999.90;;;;;;;;;;5066789;28;20400;-71
2022/09/30 06:45:25;;;;;;;1999.90;999.90;;;;;;;;;;5063235;28;20401;-72
2022/09/30 06:47:59;;;;;;;1999.90;999.90;;;;;;;;;;5046042;28;20410;-71
2022/09/30 06:50:28;;;;;;;1999.90;999.90;;;;;;;;;;5046190;28;20863;-72
2022/09/30 06:52:58;;;;;;;1999.90;999.90;;;;;;;;;;5047395;28;20777;-71
2022/09/30 06:55:27;;;;;;;1999.90;999.90;;;;;;;;;;5066980;28;20454;-71
2022/09/30 06:57:55;;;;;;;1999.90;999.90;;;;;;;;;;5043855;28;21199;-72
2022/09/30 07:00:23;;;;;;;1999.90;999.90;;;;;;;;;;5068902;28;20406;-72
2022/09/30 07:02:53;;;;;;;1999.90;999.90;;;;;;;;;;5066770;28;20394;-72
2022/09/30 07:05:21;;;;;;;1999.90;999.90;;;;;;;;;;5040613;28;20436;-72
2022/09/30 07:07:49;;;;;;;1999.90;999.90;;;;;;;;;;5049233;28;20414;-72
2022/09/30 07:10:16;;;;;;;1999.90;999.90;;;;;;;;;;5043569;28;20481;-72
2022/09/30 07:12:48;;;;;;;1999.90;999.90;;;;;;;;;;5068172;28;20391;-71
2022/09/30 07:15:16;;;;;;;1999.90;999.90;;;;;;;;;;5048134;28;20507;-72
2022/09/30 07:17:44;;;;;;;1999.90;999.90;;;;;;;;;;5063263;28;20413;-71
2022/09/30 07:20:13;;;;;;;1999.90;999.90;;;;;;;;;;5050074;28;20417;-71
2022/09/30 07:22:41;;;;;;;1999.90;999.90;;;;;;;;;;5040935;28;20399;-72
2022/09/30 07:25:10;;;;;;;1999.90;999.90;;;;;;;;;;5063640;28;20417;-72
2022/09/30 07:27:38;;;;;;;1999.90;999.90;;;;;;;;;;5041645;28;20427;-72
2022/09/30 07:30:07;;;;;;;1999.90;999.90;;;;;;;;;;5057486;28;20842;-72
2022/09/30 07:32:43;;;;;;;1999.90;999.90;;;;;;;;;;5047492;28;20418;-72
2022/09/30 07:35:11;;;;;;;1999.90;999.90;;;;;;;;;;5050052;28;20410;-71
2022/09/30 07:37:39;;;;;;;1999.90;999.90;;;;;;;;;;5060497;28;20378;-72
2022/09/30 07:40:08;;;;;;;1999.90;999.90;;;;;;;;;;5049349;28;20592;-72
2022/09/30 07:42:36;;;;;;;1999.90;999.90;;;;;;;;;;5045590;28;20478;-72
2022/09/30 07:45:05;;;;;;;1999.90;999.90;;;;;;;;;;5045999;28;20908;-72
2022/09/30 07:47:34;;;;;;;1999.90;999.90;;;;;;;;;;5059758;28;20390;-72
2022/09/30 07:50:02;;;;;;;1999.90;999.90;;;;;;;;;;5061408;28;20429;-71
2022/09/30 07:52:29;;;;;;;1999.90;999.90;;;;;;;;;;5064987;28;20416;-72
2022/09/30 07:54:57;;;;;;;1999.90;999.90;;;;;;;;;;5052936;28;20485;-72
2022/09/30 07:57:25;;;;;;;1999.90;999.90;;;;;;;;;;5063918;28;20398;-72
2022/09/30 07:59:53;;;;;;;1999.90;999.90;;;;;;;;;;5051022;28;20433;-73
2022/09/30 08:02:20;;;;;;;1999.90;999.90;;;;;;;;;;5046772;28;20405;-71
2022/09/30 08:04:50;;;;;;;1999.90;999.90;;;;;;;;;;5066535;28;21349;-72
2022/09/30 08:07:18;;;;;;;1999.90;999.90;;;;;;;;;;5050146;28;20391;-72
2022/09/30 08:09:46;;;;;;;1999.90;999.90;;;;;;;;;;5045643;28;20505;-71
2022/09/30 08:12:14;;;;;;;1999.90;999.90;;;;;;;;;;5048290;28;20403;-72
2022/09/30 08:14:43;;;;;;;1999.90;999.90;;;;;;;;;;5067016;28;20496;-72
2022/09/30 08:17:11;;;;;;;1999.90;999.90;;;;;;;;;;5065855;28;20410;-71
2022/09/30 08:19:42;;;;;;;1999.90;999.90;;;;;;;;;;5047975;28;20393;-72
2022/09/30 08:22:12;;;;;;;1999.90;999.90;;;;;;;;;;5044300;28;20454;-72
2022/09/30 08:24:40;;;;;;;1999.90;999.90;;;;;;;;;;5068685;28;20451;-72
2022/09/30 08:27:08;;;;;;;1999.90;999.90;;;;;;;;;;5059590;28;20474;-72
2022/09/30 08:29:35;;;;;;;1999.90;999.90;;;;;;;;;;5063104;28;20426;-72
2022/09/30 08:32:23;;;;;;;1999.90;999.90;;;;;;;;;;5042503;28;20381;-71
2022/09/30 08:34:51;;;;;;;1999.90;999.90;;;;;;;;;;5062562;28;20480;-72
2022/09/30 08:37:20;;;;;;;1999.90;999.90;;;;;;;;;;5065438;28;20397;-72
2022/09/30 08:39:48;;;;;;;1999.90;999.90;;;;;;;;;;5069086;28;21279;-73
2022/09/30 08:42:28;;;;;;;1999.90;999.90;;;;;;;;;;5067222;28;20409;-73
2022/09/30 08:45:12;;;;;;;1999.90;999.90;;;;;;;;;;5066745;28;20424;-72
2022/09/30 08:47:43;;;;;;;1999.90;999.90;;;;;;;;;;5047821;28;20782;-71
2022/09/30 08:50:15;;;;;;;1999.90;999.90;;;;;;;;;;5069932;28;20396;-72
2022/09/30 08:52:45;;;;;;;1999.90;999.90;;;;;;;;;;5066847;28;20391;-71
2022/09/30 08:55:20;;;;;;;1999.90;999.90;;;;;;;;;;5063939;28;20505;-72
2022/09/30 08:57:48;;;;;;;1999.90;999.90;;;;;;;;;;5070720;28;20484;-72
2022/09/30 09:00:16;;;;;;;1999.90;999.90;;;;;;;;;;5065970;28;20509;-71
2022/09/30 09:02:45;;;;;;;1999.90;999.90;;;;;;;;;;5062056;28;20393;-72
2022/09/30 09:05:17;;;;;;;1999.90;999.90;;;;;;;;;;5064248;28;20399;-72
2022/09/30 09:07:50;;;;;;;1999.90;999.90;;;;;;;;;;5064430;28;20391;-72
2022/09/30 09:10:24;;;;;;;1999.90;999.90;;;;;;;;;;5066056;28;20406;-72
2022/09/30 09:12:56;;;;;;;1999.90;999.90;;;;;;;;;;5044425;28;20401;-73
2022/09/30 09:15:30;;;;;;;1999.90;999.90;;;;;;;;;;5066629;28;20401;-72
2022/09/30 09:18:13;;;;;;;1999.90;999.90;;;;;;;;;;5061317;28;20387;-71
2022/09/30 09:20:54;;;;;;;1999.90;999.90;;;;;;;;;;5045645;28;20391;-69
2022/09/30 09:23:23;;;;;;;1999.90;999.90;;;;;;;;;;5063555;28;21735;-71
2022/09/30 09:25:54;;;;;;;1999.90;999.90;;;;;;;;;;5046554;28;20515;-72
2022/09/30 09:28:25;;;;;;;1999.90;999.90;;;;;;;;;;5044411;28;21699;-72
2022/09/30 09:30:56;;;;;;;1999.90;999.90;;;;;;;;;;5047222;28;20397;-72
2022/09/30 09:33:26;;;;;;;1999.90;999.90;;;;;;;;;;5066424;28;20397;-70
2022/09/30 09:35:58;;;;;;;1999.90;999.90;;;;;;;;;;5048927;28;20941;-71
2022/09/30 09:38:34;;;;;;;1999.90;999.90;;;;;;;;;;5049111;28;20407;-71
2022/09/30 09:41:08;;;;;;;1999.90;999.90;;;;;;;;;;5065351;28;21083;-72
2022/09/30 09:43:43;;;;;;;1999.90;999.90;;;;;;;;;;5048206;28;20459;-71
2022/09/30 09:46:15;;;;;;;1999.90;999.90;;;;;;;;;;5061735;28;20412;-72
2022/09/30 09:48:43;;;;;;;1999.90;999.90;;;;;;;;;;5061155;28;20485;-72
2022/09/30 09:51:15;;;;;;;1999.90;999.90;;;;;;;;;;5044714;28;20488;-73
2022/09/30 09:53:52;;;;;;;1999.90;999.90;;;;;;;;;;5044208;28;20826;-73
2022/09/30 09:56:20;;;;;;;1999.90;999.90;;;;;;;;;;5048613;28;20246;-73
2022/09/30 09:59:04;;;;;;;1999.90;999.90;;;;;;;;;;5044374;28;20434;-73
2022/09/30 10:01:32;;;;;;;1999.90;999.90;;;;;;;;;;5036777;28;20223;-73
2022/09/30 10:04:09;;;;;;;1999.90;999.90;;;;;;;;;;5042955;28;20499;-75
2022/09/30 10:06:48;;;;;;;1999.90;999.90;;;;;;;;;;5067372;28;20413;-74
2022/09/30 10:09:23;;;;;;;1999.90;999.90;;;;;;;;;;5061383;28;20308;-73
2022/09/30 10:11:51;;;;;;;1999.90;999.90;;;;;;;;;;5068028;28;20318;-74
2022/09/30 10:14:20;;;;;;;1999.90;999.90;;;;;;;;;;5061163;28;20904;-74
2022/09/30 10:16:48;;;;;;;1999.90;999.90;;;;;;;;;;5042987;28;21000;-74
2022/09/30 10:19:18;;;;;;;1999.90;999.90;;;;;;;;;;5043660;28;20228;-75
2022/09/30 10:21:46;;;;;;;1999.90;999.90;;;;;;;;;;5062001;28;20965;-74
2022/09/30 10:24:26;;;;;;;1999.90;999.90;;;;;;;;;;5043549;28;20502;-74
2022/09/30 10:26:55;;;;;;;1999.90;999.90;;;;;;;;;;5067277;28;20326;-75
2022/09/30 10:29:27;;;;;;;1999.90;999.90;;;;;;;;;;5063452;28;20404;-74
2022/09/30 10:31:56;;;;;;;1999.90;999.90;;;;;;;;;;5063904;28;20219;-75
2022/09/30 10:34:28;;;;;;;1999.90;999.90;;;;;;;;;;5060325;28;20319;-75
2022/09/30 10:36:56;;;;;;;1999.90;999.90;;;;;;;;;;5060622;28;20422;-75
2022/09/30 10:39:25;;;;;;;1999.90;999.90;;;;;;;;;;5065814;28;20249;-75
2022/09/30 10:42:00;;;;;;;1999.90;999.90;;;;;;;;;;5044874;28;20224;-75
2022/09/30 10:44:29;;;;;;;1999.90;999.90;;;;;;;;;;5060604;28;20737;-75
2022/09/30 10:46:59;;;;;;;1999.90;999.90;;;;;;;;;;5058125;28;20314;-72
2022/09/30 10:49:29;;;;;;;1999.90;999.90;;;;;;;;;;5029276;28;20235;-71
2022/09/30 10:51:58;;;;;;;1999.90;999.90;;;;;;;;;;5025602;28;20506;-74
2022/09/30 10:54:34;;;;;;;1999.90;999.90;;;;;;;;;;5042663;28;20450;-74
2022/09/30 10:57:04;;;;;;;1999.90;999.90;;;;;;;;;;5059546;28;20453;-74
2022/09/30 10:59:33;;;;;;;1999.90;999.90;;;;;;;;;;5033510;28;20485;-74
2022/09/30 11:02:16;;;;;;;1999.90;999.90;;;;;;;;;;5037439;28;20512;-74
2022/09/30 11:04:47;;;;;;;1999.90;999.90;;;;;;;;;;5043764;28;20503;-74
2022/09/30 11:07:18;;;;;;;1999.90;999.90;;;;;;;;;;5055263;28;20246;-73
2022/09/30 11:09:49;;;;;;;1999.90;999.90;;;;;;;;;;5046360;28;20237;-73
2022/09/30 11:12:21;;;;;;;1999.90;999.90;;;;;;;;;;5043870;28;20259;-74
2022/09/30 11:14:51;;;;;;;1999.90;999.90;;;;;;;;;;5056592;28;20388;-73
2022/09/30 11:17:25;;;;;;;1999.90;999.90;;;;;;;;;;5019604;28;20808;-74
2022/09/30 11:19:58;;;;;;;1999.90;999.90;;;;;;;;;;5032175;28;20227;-73
2022/09/30 11:22:33;;;;;;;1999.90;999.90;;;;;;;;;;5056221;28;20900;-73
2022/09/30 11:25:01;;;;;;;1999.90;999.90;;;;;;;;;;5040208;28;20286;-75
2022/09/30 11:27:39;;;;;;;1999.90;999.90;;;;;;;;;;5047874;28;20235;-73
2022/09/30 11:30:11;;;;;;;1999.90;999.90;;;;;;;;;;5026227;28;20460;-73
2022/09/30 11:32:44;;;;;;;1999.90;999.90;;;;;;;;;;5054787;28;20233;-73
2022/09/30 11:35:20;;;;;;;1999.90;999.90;;;;;;;;;;5057266;28;20481;-73
2022/09/30 11:37:55;;;;;;;1999.90;999.90;;;;;;;;;;5061708;28;20994;-73
2022/09/30 11:40:30;;;;;;;1999.90;999.90;;;;;;;;;;5067744;28;21026;-72
2022/09/30 11:43:05;;;;;;;1999.90;999.90;;;;;;;;;;5060882;28;20234;-73
2022/09/30 11:45:39;;;;;;;1999.90;999.90;;;;;;;;;;5065331;28;20290;-74
2022/09/30 11:48:18;;;;;;;1999.90;999.90;;;;;;;;;;5044599;28;20625;-74
2022/09/30 11:50:49;;;;;;;1999.90;999.90;;;;;;;;;;5051733;28;20386;-74
2022/09/30 11:53:23;;;;;;;1999.90;999.90;;;;;;;;;;5074152;28;20477;-74
2022/09/30 11:56:05;;;;;;;1999.90;999.90;;;;;;;;;;5062392;28;20227;-73
2022/09/30 11:58:36;;;;;;;1999.90;999.90;;;;;;;;;;5035645;28;20235;-73
2022/09/30 12:01:14;;;;;;;1999.90;999.90;;;;;;;;;;5037764;28;20323;-74
2022/09/30 12:03:44;;;;;;;1999.90;999.90;;;;;;;;;;5064041;28;20239;-74
2022/09/30 12:06:15;;;;;;;1999.90;999.90;;;;;;;;;;5061067;28;20251;-74
2022/09/30 12:08:46;;;;;;;1999.90;999.90;;;;;;;;;;5023187;28;20242;-74
2022/09/30 12:11:16;;;;;;;1999.90;999.90;;;;;;;;;;5058431;28;20325;-75
2022/09/30 12:13:50;;;;;;;1999.90;999.90;;;;;;;;;;5045012;28;20232;-73
2022/09/30 12:16:20;;;;;;;1999.90;999.90;;;;;;;;;;5066409;28;20280;-74
2022/09/30 12:18:51;;;;;;;1999.90;999.90;;;;;;;;;;5045806;28;20232;-73
2022/09/30 12:21:22;;;;;;;1999.90;999.90;;;;;;;;;;5042784;28;20233;-73
2022/09/30 12:23:54;;;;;;;1999.90;999.90;;;;;;;;;;5063053;28;20747;-73
2022/09/30 12:26:21;;;;;;;1999.90;999.90;;;;;;;;;;5064569;28;20273;-73
2022/09/30 12:31:51;;;;;;;1999.90;999.90;;;;;;;;;;5045693;28;20732;-73
2022/09/30 12:34:27;;;;;;;1999.90;999.90;;;;;;;;;;5062226;28;20239;-73
2022/09/30 12:37:00;;;;;;;1999.90;999.90;;;;;;;;;;5062649;28;20317;-73
2022/09/30 12:39:36;;;;;;;1999.90;999.90;;;;;;;;;;5049188;28;20255;-78
2022/09/30 12:42:13;;;;;;;1999.90;999.90;;;;;;;;;;5070758;28;20311;-82
2022/09/30 12:44:56;;;;;;;1999.90;999.90;;;;;;;;;;5080015;28;20238;-79
2022/09/30 12:47:30;;;;;;;1999.90;999.90;;;;;;;;;;5051135;28;20228;-79
2022/09/30 12:49:58;;;;;;;1999.90;999.90;;;;;;;;;;5070717;28;20227;-78
2022/09/30 12:52:31;;;;;;;1999.90;999.90;;;;;;;;;;5067723;28;20277;-78
2022/09/30 12:55:00;;;;;;;1999.90;999.90;;;;;;;;;;5063399;28;20243;-78
2022/09/30 12:57:29;;;;;;;1999.90;999.90;;;;;;;;;;5067861;28;20228;-78
2022/09/30 13:00:01;;;;;;;1999.90;999.90;;;;;;;;;;5063968;28;20227;-77
2022/09/30 13:02:31;;;;;;;1999.90;999.90;;;;;;;;;;5048339;28;20244;-78
2022/09/30 13:05:17;;;;;;;1999.90;999.90;;;;;;;;;;5049960;28;20245;-79
2022/09/30 13:08:08;;;;;;;1999.90;999.90;;;;;;;;;;5027861;28;20235;-79
2022/09/30 13:10:43;;;;;;;1999.90;999.90;;;;;;;;;;5070895;28;20305;-77
2022/09/30 13:13:16;;;;;;;1999.90;999.90;;;;;;;;;;5072459;28;20278;-78
2022/09/30 13:15:46;;;;;;;1999.90;999.90;;;;;;;;;;5067899;28;20228;-81
2022/09/30 13:18:33;;;;;;;1999.90;999.90;;;;;;;;;;5066748;28;20250;-78
2022/09/30 13:21:15;;;;;;;1999.90;999.90;;;;;;;;;;5084128;28;20215;-80
2022/09/30 13:23:44;;;;;;;1999.90;999.90;;;;;;;;;;5081460;28;20719;-78
2022/09/30 13:26:31;;;;;;;1999.90;999.90;;;;;;;;;;5064961;28;20747;-78
2022/09/30 13:29:15;;;;;;;1999.90;999.90;;;;;;;;;;5078224;28;20337;-81
2022/09/30 13:32:04;;;;;;;1999.90;999.90;;;;;;;;;;5074539;28;20222;-80
2022/09/30 13:34:33;;;;;;;1999.90;999.90;;;;;;;;;;5096864;28;20259;-81
2022/09/30 13:37:01;;;;;;;1999.90;999.90;;;;;;;;;;5075863;28;20223;-81
2022/09/30 13:39:30;;;;;;;1999.90;999.90;;;;;;;;;;5070915;28;20335;-81
2022/09/30 13:42:11;;;;;;;1999.90;999.90;;;;;;;;;;5083380;28;20227;-81
2022/09/30 13:44:44;;;;;;;1999.90;999.90;;;;;;;;;;5079536;28;20286;-81
2022/09/30 13:47:17;;;;;;;1999.90;999.90;;;;;;;;;;5081084;28;20240;-80
2022/09/30 13:49:49;;;;;;;1999.90;999.90;;;;;;;;;;5076691;28;20326;-80
2022/09/30 13:52:19;;;;;;;1999.90;999.90;;;;;;;;;;5064571;28;20223;-80
2022/09/30 13:54:48;;;;;;;1999.90;999.90;;;;;;;;;;5064562;28;20265;-80
2022/09/30 13:57:18;;;;;;;1999.90;999.90;;;;;;;;;;5088874;28;20220;-79
2022/09/30 13:59:51;;;;;;;1999.90;999.90;;;;;;;;;;5084774;28;20223;-80
2022/09/30 14:02:30;;;;;;;1999.90;999.90;;;;;;;;;;5053359;28;20223;-77
2022/09/30 14:05:25;;;;;;;1999.90;999.90;;;;;;;;;;5038878;28;20236;-80
2022/09/30 14:08:03;;;;;;;1999.90;999.90;;;;;;;;;;5060322;28;20243;-79